createdAt,value
2018-12-29T00:00:20.737Z,15.40
2018-12-29T00:01:20.725Z,14.90
2018-12-29T00:02:20.721Z,15.60
2018-12-29T00:03:20.717Z,15.40
2018-12-29T00:04:20.696Z,14.30
2018-12-29T00:05:20.697Z,15.10
2018-12-29T00:06:20.674Z,14.20
2018-12-29T00:07:20.674Z,15.50
2018-12-29T00:08:20.682Z,15.90
2018-12-29T00:09:20.637Z,15.80
2018-12-29T00:10:20.639Z,16.70
2018-12-29T00:11:20.615Z,17.30
2018-12-29T00:12:20.617Z,16.30
2018-12-29T00:13:20.611Z,16.60
2018-12-29T00:14:20.586Z,16.50
2018-12-29T00:15:20.565Z,16.20
2018-12-29T00:16:20.569Z,16.90
2018-12-29T00:17:20.555Z,16.90
2018-12-29T00:18:20.559Z,16.70
2018-12-29T00:19:20.553Z,17.80
2018-12-29T00:20:20.519Z,17.80
2018-12-29T00:21:20.515Z,17.50
2018-12-29T00:22:20.487Z,17.80
2018-12-29T00:23:20.485Z,17.60
2018-12-29T00:24:20.489Z,17.90
2018-12-29T00:25:20.466Z,18.30
2018-12-29T00:26:20.459Z,18.90
2018-12-29T00:27:20.438Z,18.40
2018-12-29T00:28:20.441Z,19.00
2018-12-29T00:29:20.434Z,18.80
2018-12-29T00:30:20.414Z,18.70
2018-12-29T00:31:20.392Z,19.30
2018-12-29T00:32:20.377Z,18.60
2018-12-29T00:33:20.371Z,18.10
2018-12-29T00:34:20.383Z,18.20
2018-12-29T00:35:20.361Z,18.60
2018-12-29T00:36:20.341Z,17.80
2018-12-29T00:37:20.322Z,18.90
2018-12-29T00:38:20.321Z,19.30
2018-12-29T00:39:20.322Z,20.20
2018-12-29T00:40:20.294Z,19.30
2018-12-29T00:41:20.283Z,19.30
2018-12-29T00:42:20.268Z,20.00
2018-12-29T00:43:20.263Z,19.50
2018-12-29T00:44:20.270Z,20.40
2018-12-29T00:45:20.233Z,19.00
2018-12-29T00:46:20.229Z,20.30
2018-12-29T00:47:20.223Z,20.60
2018-12-29T00:48:20.200Z,19.40
2018-12-29T00:49:20.207Z,20.60
2018-12-29T00:50:20.180Z,19.40
2018-12-29T00:51:20.174Z,19.90
2018-12-29T00:52:20.173Z,20.30
2018-12-29T00:53:20.146Z,20.70
2018-12-29T00:54:20.162Z,19.30
2018-12-29T00:55:20.134Z,20.90
2018-12-29T00:56:20.123Z,19.80
2018-12-29T00:57:20.103Z,21.10
2018-12-29T00:58:20.088Z,20.30
2018-12-29T00:59:20.107Z,20.50
2018-12-29T01:00:20.077Z,20.90
2018-12-29T01:01:20.073Z,20.60
2018-12-29T01:02:20.046Z,21.20
2018-12-29T01:03:20.031Z,21.10
2018-12-29T01:04:20.066Z,20.40
2018-12-29T01:05:20.037Z,20.30
2018-12-29T01:06:20.003Z,20.80
2018-12-29T01:07:19.988Z,20.60
2018-12-29T01:08:19.988Z,21.20
2018-12-29T01:09:19.968Z,20.00
2018-12-29T01:10:19.980Z,21.00
2018-12-29T01:11:19.939Z,20.90
2018-12-29T01:12:19.936Z,21.30
2018-12-29T01:13:19.933Z,20.70
2018-12-29T01:14:19.930Z,21.50
2018-12-29T01:15:19.932Z,21.30
2018-12-29T01:16:19.888Z,21.60
2018-12-29T01:17:19.870Z,20.90
2018-12-29T01:18:19.876Z,20.80
2018-12-29T01:19:19.854Z,20.30
2018-12-29T01:20:19.882Z,21.10
2018-12-29T01:21:19.841Z,22.20
2018-12-29T01:22:19.819Z,20.00
2018-12-29T01:23:19.808Z,21.20
2018-12-29T01:24:19.792Z,21.00
2018-12-29T01:25:19.820Z,21.10
2018-12-29T01:26:19.766Z,21.10
2018-12-29T01:27:19.769Z,21.80
2018-12-29T01:28:20.541Z,21.30
2018-12-29T01:29:19.731Z,20.70
2018-12-29T01:30:19.747Z,21.50
2018-12-29T01:31:19.714Z,21.50
2018-12-29T01:32:19.707Z,20.60
2018-12-29T01:33:19.699Z,21.30
2018-12-29T01:34:19.676Z,20.80
2018-12-29T01:35:19.714Z,21.50
2018-12-29T01:36:19.668Z,21.80
2018-12-29T01:37:19.716Z,21.40
2018-12-29T01:38:19.636Z,22.00
2018-12-29T01:39:19.629Z,21.60
2018-12-29T01:40:19.628Z,21.50
2018-12-29T01:41:19.607Z,23.00
2018-12-29T01:42:19.600Z,22.90
2018-12-29T01:43:19.600Z,22.10
2018-12-29T01:44:19.568Z,21.90
2018-12-29T01:45:19.587Z,22.80
2018-12-29T01:46:19.555Z,22.30
2018-12-29T01:47:19.535Z,22.60
2018-12-29T01:48:19.529Z,22.00
2018-12-29T01:49:19.533Z,22.10
2018-12-29T01:50:19.513Z,22.60
2018-12-29T01:51:19.506Z,22.00
2018-12-29T01:52:19.477Z,22.50
2018-12-29T01:53:19.479Z,22.10
2018-12-29T01:54:19.459Z,22.20
2018-12-29T01:55:19.441Z,21.30
2018-12-29T01:56:19.459Z,22.00
2018-12-29T01:57:19.424Z,22.00
2018-12-29T01:58:19.404Z,21.20
2018-12-29T01:59:19.416Z,21.50
2018-12-29T02:00:19.396Z,23.20
2018-12-29T02:01:19.411Z,22.10
2018-12-29T02:02:19.380Z,22.60
2018-12-29T02:03:19.355Z,22.00
2018-12-29T02:04:19.351Z,22.20
2018-12-29T02:05:19.331Z,22.90
2018-12-29T02:06:19.340Z,22.30
2018-12-29T02:07:19.308Z,22.00
2018-12-29T02:08:19.312Z,21.70
2018-12-29T02:09:19.284Z,23.60
2018-12-29T02:10:19.281Z,22.50
2018-12-29T02:11:19.306Z,23.10
2018-12-29T02:12:19.259Z,22.70
2018-12-29T02:13:19.247Z,22.50
2018-12-29T02:14:19.246Z,22.40
2018-12-29T02:15:24.696Z,24.10
2018-12-29T02:16:20.231Z,24.30
2018-12-29T02:17:19.203Z,24.80
2018-12-29T02:18:19.184Z,24.20
2018-12-29T02:19:19.180Z,24.50
2018-12-29T02:20:19.175Z,24.30
2018-12-29T02:21:19.189Z,24.30
2018-12-29T02:22:19.194Z,24.90
2018-12-29T02:23:19.157Z,25.20
2018-12-29T02:24:19.132Z,24.80
2018-12-29T02:25:19.115Z,25.00
2018-12-29T02:26:19.152Z,25.50
2018-12-29T02:27:19.093Z,26.30
2018-12-29T02:28:19.081Z,25.30
2018-12-29T02:29:19.075Z,25.00
2018-12-29T02:30:19.047Z,26.40
2018-12-29T02:31:19.059Z,26.20
2018-12-29T02:32:19.036Z,27.00
2018-12-29T02:33:19.033Z,26.80
2018-12-29T02:34:19.017Z,25.80
2018-12-29T02:35:18.992Z,26.60
2018-12-29T02:36:18.998Z,28.30
2018-12-29T02:37:19.002Z,27.20
2018-12-29T02:38:18.980Z,26.60
2018-12-29T02:39:18.971Z,26.20
2018-12-29T02:40:18.954Z,26.90
2018-12-29T02:41:19.628Z,26.30
2018-12-29T02:42:18.950Z,26.70
2018-12-29T02:43:18.921Z,27.50
2018-12-29T02:44:18.903Z,27.50
2018-12-29T02:45:18.888Z,26.70
2018-12-29T02:46:18.880Z,27.40
2018-12-29T02:47:18.885Z,25.90
2018-12-29T02:48:18.864Z,27.20
2018-12-29T02:49:18.855Z,27.90
2018-12-29T02:50:18.831Z,27.40
2018-12-29T02:51:18.836Z,28.40
2018-12-29T02:52:18.820Z,27.40
2018-12-29T02:53:18.798Z,28.30
2018-12-29T02:54:18.790Z,26.60
2018-12-29T02:55:18.773Z,28.20
2018-12-29T02:56:18.761Z,28.30
2018-12-29T02:57:18.776Z,28.10
2018-12-29T02:58:18.745Z,27.60
2018-12-29T02:59:18.733Z,28.70
2018-12-29T03:00:18.715Z,28.00
2018-12-29T03:01:18.705Z,28.40
2018-12-29T03:02:18.724Z,28.90
2018-12-29T03:03:18.688Z,29.30
2018-12-29T03:04:18.690Z,28.90
2018-12-29T03:05:18.664Z,27.90
2018-12-29T03:06:18.651Z,29.30
2018-12-29T03:07:18.649Z,29.30
2018-12-29T03:08:18.647Z,26.50
2018-12-29T03:09:18.620Z,26.70
2018-12-29T03:10:18.604Z,26.80
2018-12-29T03:11:18.594Z,27.00
2018-12-29T03:12:18.603Z,27.90
2018-12-29T03:13:18.577Z,27.70
2018-12-29T03:14:18.564Z,27.50
2018-12-29T03:15:18.565Z,27.20
2018-12-29T03:16:18.530Z,27.60
2018-12-29T03:17:18.576Z,27.20
2018-12-29T03:18:18.533Z,26.60
2018-12-29T03:19:18.509Z,25.20
2018-12-29T03:20:18.489Z,26.40
2018-12-29T03:21:18.487Z,27.60
2018-12-29T03:22:18.461Z,27.40
2018-12-29T03:23:18.521Z,26.30
2018-12-29T03:24:18.452Z,27.30
2018-12-29T03:25:18.433Z,26.80
2018-12-29T03:26:18.435Z,26.80
2018-12-29T03:27:18.433Z,27.00
2018-12-29T03:28:18.447Z,27.50
2018-12-29T03:29:18.399Z,26.70
2018-12-29T03:30:18.405Z,26.90
2018-12-29T03:31:18.370Z,26.80
2018-12-29T03:32:18.369Z,27.20
2018-12-29T03:33:18.375Z,25.80
2018-12-29T03:34:18.339Z,26.90
2018-12-29T03:35:18.331Z,26.10
2018-12-29T03:36:18.305Z,27.30
2018-12-29T03:37:18.322Z,27.70
2018-12-29T03:38:18.309Z,26.80
2018-12-29T03:39:18.286Z,29.10
2018-12-29T03:40:18.272Z,28.10
2018-12-29T03:41:18.258Z,27.90
2018-12-29T03:42:18.243Z,27.50
2018-12-29T03:43:18.245Z,29.30
2018-12-29T03:44:18.225Z,27.70
2018-12-29T03:45:18.211Z,28.90
2018-12-29T03:46:18.207Z,27.80
2018-12-29T03:47:18.201Z,27.80
2018-12-29T03:48:18.227Z,27.30
2018-12-29T03:49:18.164Z,28.80
2018-12-29T03:50:18.165Z,26.90
2018-12-29T03:51:18.141Z,26.90
2018-12-29T03:52:18.153Z,27.10
2018-12-29T03:53:18.147Z,28.00
2018-12-29T03:54:18.119Z,27.60
2018-12-29T03:55:18.107Z,25.80
2018-12-29T03:56:18.113Z,27.00
2018-12-29T03:57:18.082Z,27.80
2018-12-29T03:58:18.081Z,28.50
2018-12-29T03:59:18.053Z,28.30
2018-12-29T04:00:18.051Z,26.40
2018-12-29T04:01:18.032Z,27.90
2018-12-29T04:02:18.017Z,27.60
2018-12-29T04:03:18.055Z,27.40
2018-12-29T04:04:17.999Z,27.00
2018-12-29T04:05:17.989Z,27.60
2018-12-29T04:06:17.983Z,28.50
2018-12-29T04:07:17.975Z,28.10
2018-12-29T04:08:17.953Z,29.60
2018-12-29T04:09:17.969Z,27.40
2018-12-29T04:10:17.934Z,25.60
2018-12-29T04:11:17.921Z,25.90
2018-12-29T04:12:17.919Z,26.00
2018-12-29T04:13:17.900Z,25.50
2018-12-29T04:14:17.890Z,26.50
2018-12-29T04:15:17.881Z,26.40
2018-12-29T04:16:17.878Z,26.00
2018-12-29T04:17:17.850Z,26.50
2018-12-29T04:18:17.860Z,27.90
2018-12-29T04:19:17.859Z,27.10
2018-12-29T04:20:17.826Z,26.70
2018-12-29T04:21:17.822Z,26.70
2018-12-29T04:22:17.795Z,26.70
2018-12-29T04:23:17.782Z,27.70
2018-12-29T04:24:17.795Z,27.50
2018-12-29T04:25:17.756Z,26.90
2018-12-29T04:26:17.756Z,27.20
2018-12-29T04:27:17.736Z,28.00
2018-12-29T04:28:17.726Z,27.10
2018-12-29T04:29:17.728Z,26.90
2018-12-29T04:30:17.714Z,26.80
2018-12-29T04:31:17.696Z,27.30
2018-12-29T04:32:17.692Z,27.20
2018-12-29T04:33:17.681Z,27.50
2018-12-29T04:34:17.676Z,26.70
2018-12-29T04:35:17.650Z,26.20
2018-12-29T04:36:17.650Z,27.60
2018-12-29T04:37:17.628Z,27.30
2018-12-29T04:38:17.634Z,27.60
2018-12-29T04:39:17.620Z,27.00
2018-12-29T04:40:17.592Z,28.10
2018-12-29T04:41:17.595Z,29.40
2018-12-29T04:42:17.570Z,27.60
2018-12-29T04:43:17.560Z,27.50
2018-12-29T04:44:17.574Z,28.70
2018-12-29T04:45:17.534Z,28.30
2018-12-29T04:46:17.533Z,28.10
2018-12-29T04:47:17.518Z,26.90
2018-12-29T04:48:17.504Z,28.30
2018-12-29T04:49:17.494Z,27.10
2018-12-29T04:50:17.506Z,28.20
2018-12-29T04:51:17.466Z,28.80
2018-12-29T04:52:17.473Z,26.70
2018-12-29T04:53:17.444Z,28.60
2018-12-29T04:54:17.466Z,29.10
2018-12-29T04:55:17.445Z,29.30
2018-12-29T04:56:17.417Z,28.40
2018-12-29T04:57:17.401Z,28.20
2018-12-29T04:58:17.392Z,28.80
2018-12-29T04:59:17.378Z,29.50
2018-12-29T05:00:17.393Z,31.00
2018-12-29T05:01:17.365Z,30.20
2018-12-29T05:02:17.342Z,29.00
2018-12-29T05:03:17.329Z,30.10
2018-12-29T05:04:17.327Z,30.40
2018-12-29T05:05:17.325Z,27.10
2018-12-29T05:06:17.311Z,30.40
2018-12-29T05:07:17.298Z,32.00
2018-12-29T05:08:17.277Z,31.20
2018-12-29T05:09:17.275Z,30.60
2018-12-29T05:10:17.271Z,29.40
2018-12-29T05:11:17.247Z,30.30
2018-12-29T05:12:17.231Z,30.90
2018-12-29T05:13:17.224Z,30.90
2018-12-29T05:14:17.215Z,31.30
2018-12-29T05:15:17.222Z,29.90
2018-12-29T05:16:17.194Z,30.80
2018-12-29T05:17:17.215Z,30.40
2018-12-29T05:18:17.166Z,30.20
2018-12-29T05:19:17.165Z,30.60
2018-12-29T05:20:17.158Z,30.00
2018-12-29T05:21:17.133Z,28.40
2018-12-29T05:22:17.118Z,29.40
2018-12-29T05:23:17.109Z,28.80
2018-12-29T05:24:17.103Z,29.00
2018-12-29T05:25:17.109Z,27.50
2018-12-29T05:26:17.076Z,27.30
2018-12-29T05:27:17.080Z,29.50
2018-12-29T05:28:17.057Z,30.10
2018-12-29T05:29:17.035Z,29.20
2018-12-29T05:30:17.054Z,30.40
2018-12-29T05:31:17.017Z,28.90
2018-12-29T05:32:17.006Z,27.70
2018-12-29T05:33:17.004Z,28.40
2018-12-29T05:34:16.993Z,29.00
2018-12-29T05:35:16.972Z,29.30
2018-12-29T05:36:16.984Z,28.60
2018-12-29T05:37:16.955Z,28.90
2018-12-29T05:38:16.937Z,30.60
2018-12-29T05:39:16.933Z,30.90
2018-12-29T05:40:16.920Z,29.50
2018-12-29T05:41:16.921Z,29.30
2018-12-29T05:42:16.897Z,30.40
2018-12-29T05:43:16.890Z,28.80
2018-12-29T05:44:16.874Z,29.30
2018-12-29T05:45:16.863Z,28.00
2018-12-29T05:46:20.302Z,29.90
2018-12-29T05:47:16.841Z,29.30
2018-12-29T05:48:16.825Z,29.50
2018-12-29T05:49:16.824Z,28.60
2018-12-29T05:50:16.804Z,29.80
2018-12-29T05:51:16.837Z,29.60
2018-12-29T05:52:16.795Z,29.80
2018-12-29T05:53:16.786Z,30.10
2018-12-29T05:54:16.760Z,28.30
2018-12-29T05:55:16.770Z,26.90
2018-12-29T05:56:17.845Z,28.90
2018-12-29T05:57:16.733Z,29.40
2018-12-29T05:58:16.728Z,28.70
2018-12-29T05:59:16.712Z,28.20
2018-12-29T06:00:16.708Z,29.40
2018-12-29T06:01:16.721Z,29.40
2018-12-29T06:02:16.682Z,27.40
2018-12-29T06:03:16.680Z,27.80
2018-12-29T06:04:16.650Z,28.00
2018-12-29T06:05:16.658Z,27.90
2018-12-29T06:06:16.646Z,28.90
2018-12-29T06:07:16.624Z,27.60
2018-12-29T06:08:16.602Z,28.00
2018-12-29T06:09:16.600Z,29.30
2018-12-29T06:10:16.582Z,29.10
2018-12-29T06:11:16.586Z,27.20
2018-12-29T06:12:16.552Z,28.00
2018-12-29T06:13:16.568Z,28.10
2018-12-29T06:14:16.549Z,28.10
2018-12-29T06:15:16.521Z,27.90
2018-12-29T06:16:16.557Z,28.10
2018-12-29T06:17:16.496Z,27.10
2018-12-29T06:18:16.492Z,27.00
2018-12-29T06:19:16.489Z,25.40
2018-12-29T06:20:16.469Z,25.30
2018-12-29T06:21:16.460Z,26.20
2018-12-29T06:22:16.496Z,26.60
2018-12-29T06:23:16.440Z,25.80
2018-12-29T06:24:16.424Z,26.70
2018-12-29T06:25:16.517Z,27.10
2018-12-29T06:26:16.405Z,26.30
2018-12-29T06:27:16.411Z,26.50
2018-12-29T06:28:16.380Z,27.00
2018-12-29T06:29:16.363Z,25.80
2018-12-29T06:30:16.355Z,25.60
2018-12-29T06:31:16.340Z,27.50
2018-12-29T06:32:16.339Z,26.10
2018-12-29T06:33:16.323Z,27.00
2018-12-29T06:34:16.311Z,26.60
2018-12-29T06:35:17.803Z,26.80
2018-12-29T06:36:16.303Z,26.40
2018-12-29T06:37:16.285Z,26.70
2018-12-29T06:38:16.258Z,26.50
2018-12-29T06:39:16.256Z,26.70
2018-12-29T06:40:16.239Z,25.90
2018-12-29T06:41:16.235Z,25.40
2018-12-29T06:42:16.250Z,24.90
2018-12-29T06:43:16.215Z,27.60
2018-12-29T06:44:16.229Z,26.10
2018-12-29T06:45:16.201Z,24.90
2018-12-29T06:46:16.179Z,26.20
2018-12-29T06:47:16.192Z,27.40
2018-12-29T06:48:16.151Z,27.20
2018-12-29T06:49:16.157Z,26.30
2018-12-29T06:50:16.163Z,26.30
2018-12-29T06:51:16.135Z,26.10
2018-12-29T06:52:16.125Z,27.20
2018-12-29T06:53:16.093Z,27.20
2018-12-29T06:54:16.080Z,26.40
2018-12-29T06:55:16.083Z,26.60
2018-12-29T06:56:16.131Z,26.00
2018-12-29T06:57:16.071Z,26.30
2018-12-29T06:58:16.031Z,28.40
2018-12-29T06:59:16.026Z,26.80
2018-12-29T07:00:16.013Z,26.00
2018-12-29T07:01:16.016Z,27.70
2018-12-29T07:02:16.030Z,28.30
2018-12-29T07:03:15.994Z,27.00
2018-12-29T07:04:15.994Z,27.90
2018-12-29T07:05:15.961Z,27.10
2018-12-29T07:06:15.956Z,27.90
2018-12-29T07:07:15.980Z,27.70
2018-12-29T07:08:15.938Z,27.20
2018-12-29T07:09:15.912Z,26.70
2018-12-29T07:10:15.908Z,26.70
2018-12-29T07:11:15.916Z,26.70
2018-12-29T07:12:15.876Z,25.80
2018-12-29T07:13:15.899Z,25.90
2018-12-29T07:14:15.860Z,26.50
2018-12-29T07:15:15.847Z,26.80
2018-12-29T07:16:15.852Z,26.60
2018-12-29T07:17:15.834Z,25.20
2018-12-29T07:18:15.836Z,25.70
2018-12-29T07:19:15.808Z,26.10
2018-12-29T07:20:15.800Z,26.10
2018-12-29T07:21:15.783Z,26.40
2018-12-29T07:22:15.774Z,27.00
2018-12-29T07:23:15.770Z,26.50
2018-12-29T07:24:15.751Z,26.30
2018-12-29T07:25:15.745Z,26.30
2018-12-29T07:26:15.739Z,25.70
2018-12-29T07:27:15.710Z,26.00
2018-12-29T07:28:15.716Z,26.10
2018-12-29T07:29:15.704Z,26.70
2018-12-29T07:30:15.692Z,25.50
2018-12-29T07:31:15.679Z,26.40
2018-12-29T07:32:15.677Z,26.60
2018-12-29T07:33:15.681Z,27.60
2018-12-29T07:34:15.665Z,27.90
2018-12-29T07:35:16.854Z,27.50
2018-12-29T07:36:15.624Z,27.60
2018-12-29T07:37:15.608Z,27.80
2018-12-29T07:38:15.635Z,27.70
2018-12-29T07:39:15.578Z,27.80
2018-12-29T07:40:15.566Z,28.10
2018-12-29T07:41:15.551Z,26.30
2018-12-29T07:42:15.547Z,26.90
2018-12-29T07:43:15.545Z,27.30
2018-12-29T07:44:15.548Z,27.10
2018-12-29T07:45:15.520Z,26.30
2018-12-29T07:46:15.505Z,27.10
2018-12-29T07:47:15.495Z,26.70
2018-12-29T07:48:15.515Z,27.00
2018-12-29T07:49:15.487Z,24.80
2018-12-29T07:50:15.478Z,26.00
2018-12-29T07:51:15.443Z,25.40
2018-12-29T07:52:15.427Z,26.30
2018-12-29T07:53:15.447Z,26.30
2018-12-29T07:54:15.407Z,25.90
2018-12-29T07:55:15.391Z,27.00
2018-12-29T07:56:15.395Z,26.90
2018-12-29T07:57:15.379Z,27.00
2018-12-29T07:58:15.370Z,27.00
2018-12-29T07:59:15.380Z,26.60
2018-12-29T08:00:15.355Z,27.30
2018-12-29T08:01:15.358Z,27.50
2018-12-29T08:02:15.313Z,27.60
2018-12-29T08:03:15.324Z,26.20
2018-12-29T08:04:15.322Z,26.80
2018-12-29T08:05:15.294Z,26.00
2018-12-29T08:06:15.274Z,26.80
2018-12-29T08:07:15.266Z,26.50
2018-12-29T08:08:15.259Z,26.20
2018-12-29T08:09:15.269Z,27.30
2018-12-29T08:10:15.240Z,27.10
2018-12-29T08:11:15.220Z,26.90
2018-12-29T08:12:15.209Z,28.50
2018-12-29T08:13:15.202Z,29.30
2018-12-29T08:14:15.674Z,28.00
2018-12-29T08:15:16.093Z,28.90
2018-12-29T08:16:15.182Z,29.50
2018-12-29T08:17:15.160Z,27.80
2018-12-29T08:18:15.145Z,28.00
2018-12-29T08:19:15.155Z,27.90
2018-12-29T08:20:15.141Z,27.50
2018-12-29T08:21:15.114Z,25.90
2018-12-29T08:22:15.143Z,26.20
2018-12-29T08:23:15.088Z,26.40
2018-12-29T08:24:15.094Z,26.70
2018-12-29T08:25:15.060Z,26.30
2018-12-29T08:26:15.060Z,25.50
2018-12-29T08:27:15.034Z,25.90
2018-12-29T08:28:15.020Z,25.80
2018-12-29T08:29:15.036Z,25.60
2018-12-29T08:30:15.010Z,25.60
2018-12-29T08:31:14.989Z,24.70
2018-12-29T08:32:15.024Z,24.30
2018-12-29T08:33:14.973Z,24.80
2018-12-29T08:34:15.299Z,25.70
2018-12-29T08:35:14.958Z,24.40
2018-12-29T08:36:14.964Z,24.30
2018-12-29T08:37:14.950Z,25.20
2018-12-29T08:38:14.911Z,24.50
2018-12-29T08:39:15.662Z,24.10
2018-12-29T08:40:14.900Z,26.40
2018-12-29T08:41:14.886Z,24.60
2018-12-29T08:42:14.869Z,25.00
2018-12-29T08:43:14.860Z,24.90
2018-12-29T08:44:14.903Z,25.30
2018-12-29T08:45:14.839Z,24.30
2018-12-29T08:46:14.836Z,24.80
2018-12-29T08:47:14.815Z,24.60
2018-12-29T08:48:14.808Z,25.50
2018-12-29T08:49:14.812Z,24.40
2018-12-29T08:50:14.793Z,25.10
2018-12-29T08:51:14.783Z,25.80
2018-12-29T08:52:14.789Z,25.60
2018-12-29T08:53:14.743Z,25.50
2018-12-29T08:54:14.734Z,25.60
2018-12-29T08:55:14.745Z,24.90
2018-12-29T08:56:14.709Z,26.10
2018-12-29T08:57:14.739Z,25.80
2018-12-29T08:58:14.695Z,26.20
2018-12-29T08:59:14.701Z,24.80
2018-12-29T09:00:14.701Z,25.00
2018-12-29T09:01:14.677Z,25.70
2018-12-29T09:02:14.659Z,26.10
2018-12-29T09:03:14.632Z,25.80
2018-12-29T09:04:14.627Z,24.90
2018-12-29T09:05:14.640Z,26.10
2018-12-29T09:06:14.601Z,25.40
2018-12-29T09:07:14.613Z,26.30
2018-12-29T09:08:14.586Z,27.40
2018-12-29T09:09:14.571Z,27.00
2018-12-29T09:10:14.878Z,26.50
2018-12-29T09:11:14.546Z,27.30
2018-12-29T09:12:14.549Z,26.60
2018-12-29T09:13:14.518Z,27.40
2018-12-29T09:14:14.523Z,26.50
2018-12-29T09:15:14.530Z,27.30
2018-12-29T09:16:14.499Z,27.60
2018-12-29T09:17:14.470Z,27.60
2018-12-29T09:18:14.465Z,26.70
2018-12-29T09:19:14.458Z,25.50
2018-12-29T09:20:14.453Z,25.40
2018-12-29T09:21:14.447Z,25.90
2018-12-29T09:22:14.423Z,26.30
2018-12-29T09:23:14.425Z,25.30
2018-12-29T09:24:14.400Z,25.50
2018-12-29T09:25:14.427Z,25.60
2018-12-29T09:26:14.383Z,24.00
2018-12-29T09:27:14.365Z,22.80
2018-12-29T09:28:14.367Z,24.20
2018-12-29T09:29:14.341Z,22.50
2018-12-29T09:30:14.329Z,22.20
2018-12-29T09:31:14.336Z,22.10
2018-12-29T09:32:14.320Z,21.90
2018-12-29T09:33:14.302Z,21.80
2018-12-29T09:34:14.317Z,21.30
2018-12-29T09:35:14.279Z,22.60
2018-12-29T09:36:14.285Z,21.70
2018-12-29T09:37:14.247Z,21.80
2018-12-29T09:38:14.239Z,21.30
2018-12-29T09:39:14.252Z,21.80
2018-12-29T09:40:14.217Z,20.90
2018-12-29T09:41:14.222Z,21.40
2018-12-29T09:42:14.196Z,20.50
2018-12-29T09:43:14.208Z,19.90
2018-12-29T09:44:14.187Z,18.70
2018-12-29T09:45:14.229Z,18.70
2018-12-29T09:46:14.196Z,18.40
2018-12-29T09:47:19.594Z,18.20
2018-12-29T09:48:15.144Z,18.30
2018-12-29T09:49:14.192Z,18.50
2018-12-29T09:50:14.104Z,18.10
2018-12-29T09:51:14.118Z,17.60
2018-12-29T09:52:14.114Z,18.10
2018-12-29T09:53:14.074Z,18.10
2018-12-29T09:54:14.161Z,18.10
2018-12-29T09:55:14.056Z,18.80
2018-12-29T09:56:14.137Z,17.70
2018-12-29T09:57:14.039Z,18.60
2018-12-29T09:58:14.026Z,18.60
2018-12-29T09:59:14.005Z,18.40
2018-12-29T10:00:13.999Z,18.10
2018-12-29T10:01:14.011Z,19.60
2018-12-29T10:02:13.975Z,18.50
2018-12-29T10:03:13.957Z,19.50
2018-12-29T10:04:13.961Z,18.70
2018-12-29T10:05:13.943Z,18.80
2018-12-29T10:06:13.938Z,19.10
2018-12-29T10:07:13.919Z,19.20
2018-12-29T10:08:13.914Z,19.50
2018-12-29T10:09:13.891Z,19.90
2018-12-29T10:10:13.905Z,20.20
2018-12-29T10:11:13.918Z,19.80
2018-12-29T10:12:13.863Z,19.70
2018-12-29T10:13:13.853Z,20.50
2018-12-29T10:14:13.851Z,20.10
2018-12-29T10:15:13.836Z,20.00
2018-12-29T10:16:13.835Z,20.00
2018-12-29T10:17:13.811Z,19.80
2018-12-29T10:18:13.819Z,19.90
2018-12-29T10:19:13.791Z,19.40
2018-12-29T10:20:13.767Z,19.40
2018-12-29T10:21:13.781Z,19.80
2018-12-29T10:22:13.747Z,20.80
2018-12-29T10:23:13.761Z,19.50
2018-12-29T10:24:13.725Z,20.50
2018-12-29T10:25:13.727Z,20.30
2018-12-29T10:26:13.718Z,20.60
2018-12-29T10:27:13.702Z,20.90
2018-12-29T10:28:13.767Z,21.70
2018-12-29T10:29:13.679Z,21.50
2018-12-29T10:30:13.659Z,21.70
2018-12-29T10:31:13.690Z,21.70
2018-12-29T10:32:13.640Z,21.30
2018-12-29T10:33:13.621Z,22.80
2018-12-29T10:34:13.617Z,21.80
2018-12-29T10:35:13.633Z,21.70
2018-12-29T10:36:13.617Z,21.00
2018-12-29T10:37:13.575Z,21.40
2018-12-29T10:38:13.562Z,22.50
2018-12-29T10:39:13.562Z,21.80
2018-12-29T10:40:13.555Z,21.60
2018-12-29T10:41:13.581Z,22.30
2018-12-29T10:42:13.531Z,22.40
2018-12-29T10:43:13.527Z,21.70
2018-12-29T10:44:13.509Z,22.30
2018-12-29T10:45:14.475Z,23.00
2018-12-29T10:46:13.479Z,23.20
2018-12-29T10:47:13.494Z,23.00
2018-12-29T10:48:13.463Z,23.00
2018-12-29T10:49:13.457Z,22.20
2018-12-29T10:50:13.429Z,21.90
2018-12-29T10:51:13.421Z,22.70
2018-12-29T10:52:13.433Z,22.50
2018-12-29T10:53:13.400Z,22.40
2018-12-29T10:54:13.390Z,22.70
2018-12-29T10:55:13.380Z,22.30
2018-12-29T10:56:13.366Z,21.60
2018-12-29T10:57:13.375Z,23.00
2018-12-29T10:58:13.358Z,23.50
2018-12-29T10:59:13.334Z,23.20
2018-12-29T11:00:13.320Z,23.30
2018-12-29T11:01:13.322Z,22.90
2018-12-29T11:02:13.319Z,24.20
2018-12-29T11:03:13.299Z,24.70
2018-12-29T11:04:13.325Z,25.10
2018-12-29T11:05:13.272Z,23.90
2018-12-29T11:06:13.266Z,24.20
2018-12-29T11:07:13.253Z,23.80
2018-12-29T11:08:13.233Z,24.00
2018-12-29T11:09:13.219Z,24.50
2018-12-29T11:10:13.275Z,24.60
2018-12-29T11:11:13.200Z,24.70
2018-12-29T11:12:13.202Z,24.50
2018-12-29T11:13:13.181Z,23.90
2018-12-29T11:14:13.165Z,24.20
2018-12-29T11:15:13.159Z,24.00
2018-12-29T11:16:13.209Z,24.70
2018-12-29T11:17:13.187Z,25.50
2018-12-29T11:18:13.122Z,24.50
2018-12-29T11:19:13.194Z,23.00
2018-12-29T11:20:13.100Z,22.10
2018-12-29T11:21:13.085Z,21.90
2018-12-29T11:22:13.175Z,22.80
2018-12-29T11:23:13.066Z,24.60
2018-12-29T11:24:13.073Z,22.00
2018-12-29T11:25:13.040Z,22.70
2018-12-29T11:26:13.032Z,22.40
2018-12-29T11:27:13.043Z,20.90
2018-12-29T11:28:13.057Z,22.70
2018-12-29T11:29:13.006Z,22.80
2018-12-29T11:30:12.987Z,22.20
2018-12-29T11:31:12.995Z,23.00
2018-12-29T11:32:12.961Z,22.50
2018-12-29T11:33:12.973Z,23.30
2018-12-29T11:34:13.024Z,23.00
2018-12-29T11:35:12.937Z,23.40
2018-12-29T11:36:12.925Z,23.70
2018-12-29T11:37:12.913Z,22.80
2018-12-29T11:38:12.921Z,23.70
2018-12-29T11:39:12.893Z,23.60
2018-12-29T11:40:12.943Z,22.30
2018-12-29T11:41:12.914Z,23.30
2018-12-29T11:42:12.842Z,23.30
2018-12-29T11:43:12.868Z,23.60
2018-12-29T11:44:12.838Z,23.40
2018-12-29T11:45:12.825Z,22.70
2018-12-29T11:46:12.806Z,23.40
2018-12-29T11:47:12.830Z,22.80
2018-12-29T11:48:12.806Z,22.70
2018-12-29T11:49:18.000Z,23.60
2018-12-29T11:50:13.766Z,23.80
2018-12-29T11:51:12.752Z,24.20
2018-12-29T11:52:12.744Z,23.20
2018-12-29T11:53:12.745Z,22.60
2018-12-29T11:54:12.728Z,22.00
2018-12-29T11:55:12.709Z,23.30
2018-12-29T11:56:12.698Z,21.80
2018-12-29T11:57:12.688Z,23.20
2018-12-29T11:58:12.705Z,22.20
2018-12-29T11:59:12.671Z,23.00
2018-12-29T12:00:12.650Z,21.80
2018-12-29T12:01:12.635Z,21.40
2018-12-29T12:02:12.629Z,21.20
2018-12-29T12:03:12.626Z,22.90
2018-12-29T12:04:12.624Z,21.10
2018-12-29T12:05:12.594Z,21.60
2018-12-29T12:06:12.608Z,21.50
2018-12-29T12:07:12.583Z,21.30
2018-12-29T12:08:12.600Z,22.50
2018-12-29T12:09:12.546Z,22.20
2018-12-29T12:10:12.549Z,21.80
2018-12-29T12:11:12.528Z,21.20
2018-12-29T12:12:12.537Z,21.70
2018-12-29T12:13:12.506Z,22.20
2018-12-29T12:14:12.519Z,22.90
2018-12-29T12:15:12.495Z,23.00
2018-12-29T12:16:12.543Z,21.80
2018-12-29T12:17:12.452Z,22.60
2018-12-29T12:18:12.452Z,22.30
2018-12-29T12:19:12.464Z,22.10
2018-12-29T12:20:12.436Z,21.50
2018-12-29T12:21:12.412Z,21.90
2018-12-29T12:22:12.412Z,23.70
2018-12-29T12:23:12.390Z,21.70
2018-12-29T12:24:12.401Z,23.00
2018-12-29T12:25:12.372Z,22.80
2018-12-29T12:26:12.379Z,21.90
2018-12-29T12:27:12.348Z,23.10
2018-12-29T12:28:12.333Z,23.70
2018-12-29T12:29:12.351Z,23.30
2018-12-29T12:30:12.308Z,22.70
2018-12-29T12:31:12.318Z,23.50
2018-12-29T12:32:12.291Z,23.90
2018-12-29T12:33:12.280Z,24.00
2018-12-29T12:34:12.281Z,23.30
2018-12-29T12:35:12.242Z,23.40
2018-12-29T12:36:12.250Z,23.50
2018-12-29T12:37:12.235Z,24.10
2018-12-29T12:38:12.241Z,23.70
2018-12-29T12:39:12.229Z,24.40
2018-12-29T12:40:12.204Z,24.10
2018-12-29T12:41:12.191Z,23.70
2018-12-29T12:42:12.180Z,24.10
2018-12-29T12:43:12.165Z,23.40
2018-12-29T12:44:12.170Z,24.30
2018-12-29T12:45:12.157Z,23.60
2018-12-29T12:46:12.137Z,24.80
2018-12-29T12:47:12.125Z,24.40
2018-12-29T12:48:12.122Z,24.70
2018-12-29T12:49:12.121Z,24.30
2018-12-29T12:50:12.105Z,24.70
2018-12-29T12:51:12.073Z,23.90
2018-12-29T12:52:12.065Z,23.30